Niton, United Kingdom
Current Conditions -  °F | °C
As of 4:50 PM on Saturday 25 Oct 2014 (Local Time) from EGHI Reporting Station
Scattered Clouds Scattered Clouds  
Wind Chill: 57°   Ceiling: Unl
Heat Index: 57°   Visibility: 6mi
Dew Point: 45°   Wind: 12mph
Humidity: 63%   Direction: 240°WSW
Pressure: 30.09"   Gusts: NA
Location:  50.59°N, 1.28°W
Report Text: EGHI 251550Z 24010KT 220V280 9999 FEW032 SCT045 14/07 Q1019
Loading
Personal Weather Stations






























Interactive Weather Map
Tropical Storm Tracking
New forecast layout! Learn more

10-Day Weather Forecast

Advertisements
Track Severe Weather on mobile